Time;durP1;ratioP1;P1;durP2;ratioP2;P2;SDS_P1;SDS_P2;PMS_P1;PMS_P2;Temp;Humidity;BMP_temperature;BMP_pressure;BME280_temperature;BME280_humidity;BME280_pressure;Samples;Min_cycle;Max_cycle;Signal;HPM_P1;HPM_P2
2024/03/24 00:00:14;;;;;;;0.90;0.80;;;;;;;3.44;100.00;96163.25;5036435;28;20045;-69
2024/03/24 00:02:40;;;;;;;2.60;1.00;;;;;;;3.46;100.00;96162.91;5042299;28;20116;-69
2024/03/24 00:05:06;;;;;;;1.48;1.00;;;;;;;3.53;100.00;96149.63;5056472;28;20423;-68
2024/03/24 00:07:31;;;;;;;14.38;7.35;;;;;;;3.51;100.00;96149.16;5048483;28;20037;-68
2024/03/24 00:09:57;;;;;;;4.63;1.27;;;;;;;3.51;100.00;96149.16;5039446;28;20456;-69
2024/03/24 00:12:22;;;;;;;1.42;1.30;;;;;;;3.54;100.00;96155.81;5036810;28;20285;-68
2024/03/24 00:14:47;;;;;;;1.35;0.98;;;;;;;3.49;100.00;96158.72;5045931;28;20064;-69
2024/03/24 00:17:13;;;;;;;2.35;0.90;;;;;;;3.53;100.00;96160.44;5042704;28;20082;-68
2024/03/24 00:19:38;;;;;;;2.83;1.00;;;;;;;3.41;100.00;96158.47;5047343;28;20033;-69
2024/03/24 00:22:04;;;;;;;1.83;1.10;;;;;;;3.50;100.00;96152.22;5034812;28;20037;-68
2024/03/24 00:24:29;;;;;;;1.45;0.90;;;;;;;3.43;100.00;96155.44;5049523;28;20048;-70
2024/03/24 00:26:55;;;;;;;1.40;1.00;;;;;;;3.35;100.00;96159.00;5045239;28;20854;-68
2024/03/24 00:29:21;;;;;;;2.55;0.90;;;;;;;3.34;100.00;96160.16;5034574;28;20037;-68
2024/03/24 00:31:46;;;;;;;2.13;0.90;;;;;;;3.41;100.00;96153.06;5039362;28;20033;-68
2024/03/24 00:34:11;;;;;;;1.98;0.80;;;;;;;3.58;100.00;96143.19;5034773;28;20630;-67
2024/03/24 00:36:37;;;;;;;3.38;0.90;;;;;;;3.62;100.00;96142.19;5039159;28;20048;-68
2024/03/24 00:39:06;;;;;;;3.92;1.00;;;;;;;3.53;100.00;96132.56;5035592;28;20048;-68
2024/03/24 00:41:31;;;;;;;1.95;0.93;;;;;;;3.58;100.00;96125.03;5041698;28;20048;-68
2024/03/24 00:43:57;;;;;;;1.58;0.80;;;;;;;3.50;100.00;96123.19;5042042;28;20047;-67
2024/03/24 00:46:22;;;;;;;1.70;1.00;;;;;;;3.42;100.00;96115.94;5034901;28;20523;-67
2024/03/24 00:48:47;;;;;;;3.25;1.00;;;;;;;3.51;100.00;96115.88;5021772;28;20041;-67
2024/03/24 00:51:14;;;;;;;1.98;0.90;;;;;;;3.55;100.00;96109.47;5034633;28;20127;-67
2024/03/24 00:53:39;;;;;;;4.05;1.58;;;;;;;3.57;100.00;96104.50;5039211;28;20504;-68
2024/03/24 00:56:05;;;;;;;3.22;1.40;;;;;;;3.39;100.00;96101.19;5038413;28;20108;-68
2024/03/24 00:58:30;;;;;;;2.85;1.25;;;;;;;3.54;100.00;96102.44;5059780;28;20059;-69
2024/03/24 01:00:56;;;;;;;5.80;1.90;;;;;;;3.48;100.00;96092.97;5052577;28;20044;-69
2024/03/24 01:03:22;;;;;;;3.55;1.23;;;;;;;3.68;100.00;96083.19;5054307;28;20502;-68
2024/03/24 01:05:48;;;;;;;11.90;1.92;;;;;;;3.57;100.00;96093.66;5049770;28;20036;-67
2024/03/24 01:08:14;;;;;;;3.03;1.35;;;;;;;3.60;100.00;96090.28;5049412;28;20044;-68
2024/03/24 01:10:40;;;;;;;2.38;1.38;;;;;;;3.63;100.00;96086.88;5055004;28;20449;-68
2024/03/24 01:13:05;;;;;;;4.75;1.45;;;;;;;3.53;100.00;96087.34;5044438;28;20037;-67
2024/03/24 01:15:31;;;;;;;8.13;1.70;;;;;;;3.67;100.00;96087.00;5047612;28;20044;-67
2024/03/24 01:17:57;;;;;;;8.07;1.60;;;;;;;3.69;100.00;96087.47;5039032;28;20037;-68
2024/03/24 01:20:22;;;;;;;3.38;1.27;;;;;;;3.69;100.00;96075.84;5041971;28;20241;-68
2024/03/24 01:22:48;;;;;;;10.43;2.70;;;;;;;3.54;100.00;96069.16;5049869;28;20056;-68
2024/03/24 01:25:13;;;;;;;8.82;1.65;;;;;;;3.50;100.00;96066.34;5037303;28;20072;-68
2024/03/24 01:27:39;;;;;;;5.88;1.52;;;;;;;3.42;100.00;96059.09;5059896;28;20040;-67
2024/03/24 01:30:05;;;;;;;7.95;1.50;;;;;;;3.36;100.00;96052.34;5039498;28;20041;-67
2024/03/24 01:32:30;;;;;;;2.88;1.33;;;;;;;3.27;100.00;96051.63;5038287;28;20041;-67
2024/03/24 01:34:56;;;;;;;6.95;1.52;;;;;;;3.17;100.00;96061.78;5039789;28;20044;-68
2024/03/24 01:37:21;;;;;;;4.95;1.48;;;;;;;3.16;100.00;96054.75;5044096;28;20331;-68
2024/03/24 01:39:48;;;;;;;6.85;1.45;;;;;;;3.22;100.00;96052.63;5028867;28;20072;-68
2024/03/24 01:42:14;;;;;;;6.40;1.70;;;;;;;3.20;100.00;96052.19;5037707;28;20510;-69
2024/03/24 01:44:40;;;;;;;5.60;1.38;;;;;;;3.33;100.00;96050.28;5049832;28;20052;-69
2024/03/24 01:47:06;;;;;;;10.27;1.65;;;;;;;3.47;100.00;96049.97;5046911;28;20053;-69
2024/03/24 01:49:32;;;;;;;4.53;1.30;;;;;;;3.41;100.00;96036.66;5038530;28;20045;-68
2024/03/24 01:51:57;;;;;;;5.13;1.40;;;;;;;3.43;100.00;96036.31;5038378;28;20033;-69
2024/03/24 01:54:24;;;;;;;6.57;1.40;;;;;;;3.30;100.00;96034.75;5041137;28;20036;-69
2024/03/24 01:56:50;;;;;;;4.47;1.40;;;;;;;3.25;100.00;96033.03;5050721;28;20032;-69
2024/03/24 01:59:16;;;;;;;6.00;1.63;;;;;;;3.21;100.00;96030.19;5068666;28;20041;-68
2024/03/24 02:01:42;;;;;;;4.95;1.55;;;;;;;3.23;100.00;96036.06;5056484;28;20041;-68
2024/03/24 02:04:08;;;;;;;6.97;1.70;;;;;;;3.21;100.00;96029.41;5045611;28;20035;-69
2024/03/24 02:06:35;;;;;;;6.45;1.75;;;;;;;3.02;100.00;96021.81;5049903;28;20067;-68
2024/03/24 02:09:00;;;;;;;4.82;1.80;;;;;;;2.92;100.00;96028.44;5046600;28;20037;-67
2024/03/24 02:11:27;;;;;;;2.83;1.40;;;;;;;2.88;100.00;96022.09;5037549;28;20729;-69
2024/03/24 02:13:57;;;;;;;6.78;1.80;;;;;;;2.96;100.00;96023.16;5040215;28;20547;-68
2024/03/24 02:16:23;;;;;;;8.00;1.75;;;;;;;2.95;100.00;96030.44;5046381;28;20059;-69
2024/03/24 02:18:49;;;;;;;4.57;1.60;;;;;;;2.89;100.00;96028.31;5062259;28;20131;-69
2024/03/24 02:21:14;;;;;;;7.35;1.90;;;;;;;3.01;100.00;96028.34;5047989;28;20456;-69
2024/03/24 02:23:39;;;;;;;2.35;1.40;;;;;;;3.10;100.00;96014.72;5053739;28;20037;-70
2024/03/24 02:26:05;;;;;;;7.75;1.60;;;;;;;3.10;100.00;96012.00;5041161;28;20128;-69
2024/03/24 02:28:30;;;;;;;3.60;1.63;;;;;;;3.06;100.00;96012.69;5040842;28;20037;-69
2024/03/24 02:30:55;;;;;;;6.50;1.75;;;;;;;3.11;100.00;96019.00;5050194;28;20103;-69
2024/03/24 02:33:21;;;;;;;5.53;1.70;;;;;;;3.01;100.00;96015.59;5038154;28;20049;-69
2024/03/24 02:35:48;;;;;;;5.35;1.80;;;;;;;3.00;100.00;96003.19;5049876;28;20040;-69
2024/03/24 02:38:14;;;;;;;6.22;1.92;;;;;;;3.04;100.00;96012.25;5045831;28;20110;-71
2024/03/24 02:40:40;;;;;;;3.85;1.50;;;;;;;2.97;100.00;96012.00;5041022;28;20045;-70
2024/03/24 02:43:05;;;;;;;6.38;1.27;;;;;;;2.97;100.00;96016.59;5047189;28;20051;-68
2024/03/24 02:45:31;;;;;;;4.57;1.85;;;;;;;2.95;100.00;96013.44;5051822;28;20132;-67
2024/03/24 02:47:56;;;;;;;5.15;1.60;;;;;;;3.00;100.00;96014.00;5041431;28;20098;-68
2024/03/24 02:50:22;;;;;;;5.03;1.70;;;;;;;2.96;100.00;96012.31;5054003;28;20467;-68
2024/03/24 02:52:47;;;;;;;5.47;1.60;;;;;;;3.05;100.00;96010.31;5058025;28;20037;-67
2024/03/24 02:55:12;;;;;;;4.43;1.48;;;;;;;3.04;100.00;96006.03;5039979;28;20510;-69
2024/03/24 02:57:38;;;;;;;6.05;1.75;;;;;;;3.05;100.00;96002.19;5055252;28;20045;-68
2024/03/24 03:00:06;;;;;;;3.72;1.55;;;;;;;3.04;100.00;96006.03;5037733;28;20072;-72
2024/03/24 03:02:32;;;;;;;4.25;1.73;;;;;;;2.99;100.00;96000.81;5063868;28;20040;-69
2024/03/24 03:04:57;;;;;;;5.93;1.73;;;;;;;2.99;100.00;95985.41;5056859;28;20037;-69
2024/03/24 03:07:23;;;;;;;4.25;1.70;;;;;;;3.05;100.00;95989.47;5056161;28;21055;-69
2024/03/24 03:09:50;;;;;;;4.25;1.60;;;;;;;2.99;100.00;95990.00;5052847;28;20427;-70
2024/03/24 03:12:16;;;;;;;4.80;1.42;;;;;;;2.97;100.00;95994.97;5048755;28;20495;-70
2024/03/24 03:14:41;;;;;;;6.55;2.00;;;;;;;2.92;100.00;95989.75;5041113;28;20128;-69
2024/03/24 03:17:07;;;;;;;8.75;2.53;;;;;;;2.93;100.00;95986.72;5034685;28;20041;-72
2024/03/24 03:19:33;;;;;;;5.18;1.95;;;;;;;2.94;100.00;95985.59;5058693;28;20060;-69
2024/03/24 03:21:58;;;;;;;4.20;1.75;;;;;;;2.90;100.00;95994.72;5046823;28;20048;-69
2024/03/24 03:24:24;;;;;;;3.28;1.67;;;;;;;2.92;100.00;95985.16;5044020;28;20092;-70
2024/03/24 03:26:49;;;;;;;3.95;1.60;;;;;;;2.86;100.00;95978.34;5045294;28;20056;-70
2024/03/24 03:29:15;;;;;;;2.88;1.48;;;;;;;2.79;100.00;95981.63;5056577;28;20047;-69
2024/03/24 03:31:40;;;;;;;4.75;1.52;;;;;;;2.77;100.00;95985.78;5041517;28;20679;-68
2024/03/24 03:34:06;;;;;;;4.40;1.42;;;;;;;2.80;100.00;95979.72;5035114;28;20031;-69
2024/03/24 03:36:31;;;;;;;4.38;1.63;;;;;;;2.72;100.00;95977.88;5042031;28;20049;-69
2024/03/24 03:38:56;;;;;;;3.80;1.60;;;;;;;2.61;100.00;95974.78;5038936;28;20060;-69
2024/03/24 03:41:22;;;;;;;3.15;1.50;;;;;;;2.56;100.00;95975.81;5046265;28;20043;-69
2024/03/24 03:43:48;;;;;;;4.03;1.27;;;;;;;2.56;100.00;95975.03;5057066;28;20036;-70
2024/03/24 03:46:14;;;;;;;1.95;1.25;;;;;;;2.55;100.00;95966.09;5047815;28;20072;-69
2024/03/24 03:48:43;;;;;;;2.60;1.30;;;;;;;2.52;100.00;95984.91;5056464;28;20044;-71
2024/03/24 03:51:17;;;;;;;3.15;1.20;;;;;;;2.43;100.00;95980.38;5035031;28;20071;-69
2024/03/24 03:53:48;;;;;;;2.30;1.35;;;;;;;2.43;100.00;95984.97;5039312;28;20399;-69
2024/03/24 03:56:13;;;;;;;3.17;1.30;;;;;;;2.46;100.00;95985.09;5038315;28;20041;-70
2024/03/24 03:58:42;;;;;;;2.47;1.30;;;;;;;2.39;100.00;95976.72;5039226;28;20049;-69
2024/03/24 04:01:07;;;;;;;2.72;1.30;;;;;;;2.50;100.00;95982.50;5035204;28;20127;-69
2024/03/24 04:03:34;;;;;;;2.13;1.20;;;;;;;2.37;100.00;95981.69;5050852;28;20128;-70
2024/03/24 04:06:03;;;;;;;1.48;1.08;;;;;;;2.40;100.00;95986.44;5061666;28;20063;-68
2024/03/24 04:08:29;;;;;;;3.80;1.42;;;;;;;2.28;100.00;95986.38;5057670;28;20040;-69
2024/03/24 04:10:54;;;;;;;2.75;1.23;;;;;;;2.24;100.00;95986.22;5048596;28;20037;-69
2024/03/24 04:13:20;;;;;;;5.13;1.67;;;;;;;2.29;100.00;95987.97;5043628;28;20266;-69
2024/03/24 04:15:45;;;;;;;2.72;1.45;;;;;;;2.36;100.00;95990.13;5033134;28;20035;-68
2024/03/24 04:18:11;;;;;;;3.13;1.20;;;;;;;2.32;100.00;95987.28;5047022;28;20529;-69
2024/03/24 04:20:37;;;;;;;1.25;1.13;;;;;;;2.22;100.00;95987.69;5061064;28;20065;-69
2024/03/24 04:23:03;;;;;;;1.98;1.40;;;;;;;2.22;100.00;95982.28;5042979;28;20032;-70
2024/03/24 04:25:29;;;;;;;1.77;1.15;;;;;;;2.16;100.00;95979.00;5046992;28;20045;-68
2024/03/24 04:27:54;;;;;;;2.20;1.10;;;;;;;2.09;100.00;95982.22;5047017;28;20072;-69
2024/03/24 04:30:20;;;;;;;1.45;1.02;;;;;;;2.05;100.00;95975.09;5051092;28;20127;-68
2024/03/24 04:32:46;;;;;;;1.95;1.38;;;;;;;2.02;100.00;95975.78;5040233;28;20052;-68
2024/03/24 04:35:11;;;;;;;3.78;1.48;;;;;;;2.16;100.00;95983.59;5042603;28;20136;-68
2024/03/24 04:37:37;;;;;;;1.83;1.50;;;;;;;2.07;100.00;95981.75;5038605;28;20041;-69
2024/03/24 04:40:05;;;;;;;1.50;1.40;;;;;;;2.10;100.00;95978.38;5037138;28;20080;-73
2024/03/24 04:42:35;;;;;;;2.70;1.70;;;;;;;2.01;100.00;95971.47;5043161;28;20399;-70
2024/03/24 04:45:01;;;;;;;3.17;1.48;;;;;;;1.98;100.00;95966.72;5038537;28;20102;-69
2024/03/24 04:47:30;;;;;;;2.05;1.40;;;;;;;1.99;100.00;95966.41;5045560;28;20043;-70
2024/03/24 04:49:55;;;;;;;2.92;1.40;;;;;;;2.01;100.00;95961.47;5048481;28;20064;-70
2024/03/24 04:52:21;;;;;;;2.33;1.70;;;;;;;2.06;100.00;95966.66;5051398;28;20040;-72
2024/03/24 04:54:46;;;;;;;2.03;1.70;;;;;;;2.04;100.00;95973.53;5050927;28;20060;-69
2024/03/24 04:57:12;;;;;;;2.67;1.60;;;;;;;2.09;100.00;95976.03;5046755;28;20037;-68
2024/03/24 04:59:38;;;;;;;2.92;1.70;;;;;;;2.12;100.00;95974.56;5042502;28;20492;-69
2024/03/24 05:02:03;;;;;;;3.08;1.80;;;;;;;2.14;100.00;95975.03;5041148;28;20040;-69
2024/03/24 05:04:29;;;;;;;3.58;1.65;;;;;;;2.09;100.00;95970.63;5045215;28;20140;-68
2024/03/24 05:06:54;;;;;;;2.67;1.60;;;;;;;2.09;100.00;95978.75;5041513;28;20041;-68
2024/03/24 05:09:20;;;;;;;4.93;1.58;;;;;;;2.15;100.00;95976.63;5035591;28;20117;-69
2024/03/24 05:11:46;;;;;;;2.55;1.80;;;;;;;2.07;100.00;95973.66;5058601;28;20040;-69
2024/03/24 05:14:12;;;;;;;3.25;1.60;;;;;;;2.18;100.00;95975.94;5038872;28;20036;-68
2024/03/24 05:16:38;;;;;;;1.90;1.40;;;;;;;2.22;100.00;95972.28;5047553;28;20435;-68
2024/03/24 05:19:04;;;;;;;2.28;1.73;;;;;;;2.21;100.00;95981.47;5042528;28;20037;-73
2024/03/24 05:21:31;;;;;;;1.70;1.48;;;;;;;2.27;100.00;95980.19;5041038;28;20040;-68
2024/03/24 05:23:56;;;;;;;1.70;1.55;;;;;;;2.29;100.00;95980.63;5044766;28;20068;-69
2024/03/24 05:26:21;;;;;;;3.55;1.58;;;;;;;2.33;100.00;95975.34;5033676;28;20076;-69
2024/03/24 05:28:47;;;;;;;2.97;1.50;;;;;;;2.27;100.00;95984.81;5049084;28;20120;-69
2024/03/24 05:31:12;;;;;;;2.53;1.50;;;;;;;2.25;100.00;95981.63;5034591;28;20104;-69
2024/03/24 05:33:38;;;;;;;1.85;1.48;;;;;;;2.28;100.00;95973.63;5047445;28;20041;-69
2024/03/24 05:36:04;;;;;;;3.60;1.70;;;;;;;2.22;100.00;95974.19;5042691;28;20033;-72
2024/03/24 05:38:32;;;;;;;5.68;2.20;;;;;;;2.35;100.00;95981.22;5047813;28;20037;-69
2024/03/24 05:41:05;;;;;;;2.58;1.60;;;;;;;2.25;100.00;95976.22;5043948;28;20041;-69
2024/03/24 05:43:30;;;;;;;1.42;1.20;;;;;;;2.40;100.00;95977.53;5054771;28;20067;-68
2024/03/24 05:45:56;;;;;;;2.97;1.50;;;;;;;2.32;100.00;95978.38;5053992;28;20060;-68
2024/03/24 05:48:22;;;;;;;2.65;1.35;;;;;;;2.42;100.00;95986.88;5050731;28;21084;-68
2024/03/24 05:51:05;;;;;;;2.35;1.20;;;;;;;2.42;100.00;95981.47;5047240;28;20068;-68
2024/03/24 05:53:32;;;;;;;4.85;1.42;;;;;;;2.46;100.00;95978.91;5045589;28;20033;-68
2024/03/24 05:56:01;;;;;;;1.30;1.13;;;;;;;2.48;100.00;95977.47;5042358;28;20060;-68
2024/03/24 05:58:27;;;;;;;4.95;1.50;;;;;;;2.52;100.00;95966.78;5038147;28;20055;-67
2024/03/24 06:00:52;;;;;;;2.55;1.40;;;;;;;2.60;100.00;95971.31;5049544;28;20037;-68
2024/03/24 06:03:18;;;;;;;2.50;1.40;;;;;;;2.79;100.00;95978.94;5038008;28;20057;-69
2024/03/24 06:05:43;;;;;;;1.40;1.30;;;;;;;2.68;100.00;95975.84;5050599;28;20215;-68
2024/03/24 06:08:09;;;;;;;2.63;1.30;;;;;;;2.59;100.00;95980.56;5056002;28;20041;-69
2024/03/24 06:10:44;;;;;;;3.58;1.55;;;;;;;2.64;100.00;95990.34;5070119;28;20049;-68
2024/03/24 06:13:10;;;;;;;1.80;1.35;;;;;;;2.63;100.00;95984.16;5043024;28;20045;-68
2024/03/24 06:15:36;;;;;;;3.20;1.70;;;;;;;2.55;100.00;95987.72;5041126;28;20764;-68
2024/03/24 06:18:06;;;;;;;3.13;1.48;;;;;;;2.65;100.00;95989.25;5048416;28;20072;-70
2024/03/24 06:20:38;;;;;;;1.95;1.30;;;;;;;2.67;100.00;95985.06;5040799;28;20581;-68
2024/03/24 06:23:04;;;;;;;2.03;1.55;;;;;;;2.74;100.00;95989.94;5046603;28;20040;-71
2024/03/24 06:25:31;;;;;;;2.17;1.27;;;;;;;2.84;100.00;95996.84;5025685;28;20049;-68
2024/03/24 06:27:57;;;;;;;4.43;1.20;;;;;;;2.79;100.00;95995.16;5053978;28;20067;-68
2024/03/24 06:30:23;;;;;;;4.00;1.33;;;;;;;2.85;100.00;95998.44;5049411;28;20496;-68
2024/03/24 06:32:49;;;;;;;3.55;1.20;;;;;;;2.98;100.00;96000.03;5058776;28;20538;-69
2024/03/24 06:35:15;;;;;;;2.35;1.35;;;;;;;3.03;100.00;95999.03;5040523;28;20065;-68
2024/03/24 06:37:40;;;;;;;3.60;1.20;;;;;;;3.00;100.00;96003.19;5059055;28;20040;-68
2024/03/24 06:40:10;;;;;;;3.22;1.30;;;;;;;3.05;100.00;96000.28;5042926;28;20479;-69
2024/03/24 06:42:43;;;;;;;1.98;1.23;;;;;;;3.01;100.00;96009.41;5046256;28;20040;-69
2024/03/24 06:45:12;;;;;;;2.90;1.13;;;;;;;3.01;100.00;96012.13;5051835;28;20131;-67
2024/03/24 06:47:38;;;;;;;1.57;1.10;;;;;;;3.08;100.00;96009.66;5043798;28;20111;-68
2024/03/24 06:50:08;;;;;;;1.40;1.10;;;;;;;2.90;100.00;96002.81;5024733;28;20290;-70
2024/03/24 06:52:34;;;;;;;1.50;1.10;;;;;;;2.85;100.00;96006.56;5044202;28;20037;-69
2024/03/24 06:54:59;;;;;;;1.52;1.00;;;;;;;2.96;100.00;96002.28;5055364;28;20060;-68
2024/03/24 06:57:26;;;;;;;1.73;0.80;;;;;;;3.03;100.00;96015.28;5052607;28;20098;-71
2024/03/24 06:59:51;;;;;;;1.70;1.00;;;;;;;3.08;100.00;96008.84;5041292;28;20530;-68
2024/03/24 07:02:17;;;;;;;1.02;0.90;;;;;;;3.32;100.00;96017.03;5036485;28;20037;-69
2024/03/24 07:04:42;;;;;;;2.00;1.02;;;;;;;3.28;100.00;96015.31;5051502;28;20048;-69
2024/03/24 07:07:08;;;;;;;1.40;0.90;;;;;;;3.53;100.00;96011.53;5046209;28;20036;-68
2024/03/24 07:09:33;;;;;;;1.42;0.90;;;;;;;3.63;100.00;96015.69;5060143;28;20048;-67
2024/03/24 07:11:59;;;;;;;2.25;0.82;;;;;;;3.75;100.00;96021.13;5058856;28;20044;-70
2024/03/24 07:14:24;;;;;;;4.03;1.10;;;;;;;3.58;100.00;96014.03;5045454;28;20043;-69
2024/03/24 07:16:50;;;;;;;1.00;0.93;;;;;;;3.39;100.00;96030.00;5040789;28;20037;-69
2024/03/24 07:19:15;;;;;;;1.50;0.98;;;;;;;3.34;100.00;96038.34;5036320;28;20454;-70
2024/03/24 07:21:41;;;;;;;2.08;1.00;;;;;;;3.39;100.00;96027.31;5043149;28;20033;-69
2024/03/24 07:24:07;;;;;;;2.42;2.15;;;;;;;3.40;100.00;96034.28;5042490;28;20037;-68
2024/03/24 07:26:34;;;;;;;1.35;1.00;;;;;;;3.42;100.00;96051.78;5041238;28;20040;-68
2024/03/24 07:28:59;;;;;;;1.05;0.80;;;;;;;3.58;100.00;96049.22;5040520;28;20033;-68
2024/03/24 07:31:25;;;;;;;0.90;0.80;;;;;;;3.61;100.00;96061.28;5053271;28;20055;-70
2024/03/24 07:33:50;;;;;;;0.93;0.82;;;;;;;4.09;100.00;96058.91;5041835;28;20040;-69
2024/03/24 07:36:15;;;;;;;3.67;0.90;;;;;;;4.49;100.00;96061.69;5044198;28;20037;-69
2024/03/24 07:38:41;;;;;;;1.13;0.70;;;;;;;4.58;100.00;96066.97;5048438;28;20045;-69
2024/03/24 07:41:06;;;;;;;2.28;0.80;;;;;;;4.87;100.00;96063.16;5035005;28;20048;-68
2024/03/24 07:43:31;;;;;;;1.75;0.70;;;;;;;4.85;100.00;96068.13;5047948;28;20120;-69
2024/03/24 07:45:57;;;;;;;1.73;0.52;;;;;;;5.42;100.00;96068.09;5048487;28;20488;-68
2024/03/24 07:48:22;;;;;;;0.85;0.70;;;;;;;5.51;100.00;96058.66;5038257;28;20562;-67
2024/03/24 07:50:48;;;;;;;1.88;0.93;;;;;;;5.33;100.00;96065.53;5038325;28;20067;-67
2024/03/24 07:53:13;;;;;;;3.47;0.82;;;;;;;5.19;100.00;96065.19;5031848;28;20120;-69
2024/03/24 07:55:42;;;;;;;1.10;0.85;;;;;;;5.06;100.00;96072.56;5048001;28;20047;-68
2024/03/24 07:58:07;;;;;;;1.95;0.85;;;;;;;5.12;100.00;96074.69;5032505;28;20045;-71
2024/03/24 08:00:33;;;;;;;1.17;0.70;;;;;;;5.71;100.00;96078.56;5038661;28;20045;-68
2024/03/24 08:02:59;;;;;;;0.85;0.65;;;;;;;6.18;100.00;96087.88;5059254;28;20040;-69
2024/03/24 08:05:24;;;;;;;1.80;0.88;;;;;;;7.37;100.00;96082.97;5020289;28;20052;-68
2024/03/24 08:07:50;;;;;;;1.17;0.45;;;;;;;7.57;100.00;96086.47;5043819;28;20052;-69
2024/03/24 08:10:15;;;;;;;1.52;0.80;;;;;;;6.15;100.00;96096.72;5044321;28;20135;-69
2024/03/24 08:12:41;;;;;;;1.50;0.75;;;;;;;6.50;100.00;96096.00;5049212;28;20037;-70
2024/03/24 08:15:07;;;;;;;1.08;0.60;;;;;;;6.67;100.00;96102.97;5066953;28;20060;-68
2024/03/24 08:17:33;;;;;;;2.50;0.88;;;;;;;6.40;100.00;96096.53;5048043;28;20118;-68
2024/03/24 08:19:58;;;;;;;2.00;0.90;;;;;;;6.16;100.00;96111.91;5040051;28;20036;-68
2024/03/24 08:22:23;;;;;;;2.00;1.10;;;;;;;6.60;100.00;96091.91;5038819;28;20586;-68
2024/03/24 08:24:49;;;;;;;3.13;0.80;;;;;;;6.37;100.00;96098.00;5046722;28;20079;-69
2024/03/24 08:27:14;;;;;;;4.80;1.08;;;;;;;5.83;100.00;96101.34;5045490;28;20044;-68
2024/03/24 08:29:40;;;;;;;4.95;1.10;;;;;;;6.46;100.00;96109.50;5038098;28;20190;-69
2024/03/24 08:32:05;;;;;;;1.52;0.98;;;;;;;5.80;100.00;96104.75;5033415;28;20041;-69
2024/03/24 08:34:31;;;;;;;2.58;0.98;;;;;;;5.92;100.00;96107.41;5036879;28;20079;-68
2024/03/24 08:36:56;;;;;;;4.07;0.90;;;;;;;5.82;100.00;96103.28;5043034;28;20439;-68
2024/03/24 08:39:21;;;;;;;2.40;0.98;;;;;;;6.38;100.00;96123.31;5045389;28;20574;-69
2024/03/24 08:41:47;;;;;;;1.52;0.80;;;;;;;7.21;100.00;96123.91;5047224;28;20048;-68
2024/03/24 08:44:12;;;;;;;1.60;0.70;;;;;;;6.91;100.00;96110.06;5037720;28;20049;-69
2024/03/24 08:46:39;;;;;;;2.58;0.70;;;;;;;6.59;100.00;96118.34;5040427;28;20492;-68
2024/03/24 08:49:04;;;;;;;5.38;0.90;;;;;;;6.46;100.00;96120.41;5038390;28;20048;-68
2024/03/24 08:51:30;;;;;;;1.33;0.70;;;;;;;7.18;100.00;96102.84;5041826;28;20106;-68
2024/03/24 08:53:55;;;;;;;2.97;0.85;;;;;;;7.70;100.00;96119.00;5042750;28;20037;-68
2024/03/24 08:56:21;;;;;;;3.85;0.88;;;;;;;7.37;100.00;96112.94;5033820;28;20045;-68
2024/03/24 08:58:46;;;;;;;3.20;0.70;;;;;;;8.11;100.00;96111.91;5038655;28;20045;-68
2024/03/24 09:01:11;;;;;;;4.22;0.60;;;;;;;9.09;100.00;96105.94;5032790;28;20047;-68
2024/03/24 09:03:37;;;;;;;1.23;0.80;;;;;;;8.77;100.00;96107.09;5046802;28;20029;-68
2024/03/24 09:06:02;;;;;;;0.68;0.50;;;;;;;8.76;99.79;96104.72;5043226;28;20039;-69
2024/03/24 09:08:28;;;;;;;2.38;0.73;;;;;;;8.82;98.57;96107.91;5041168;28;20714;-68
2024/03/24 09:10:53;;;;;;;4.25;0.70;;;;;;;7.79;100.00;96117.59;5047923;28;20033;-68
2024/03/24 09:13:19;;;;;;;3.40;0.80;;;;;;;8.09;100.00;96119.69;5048673;28;20047;-67
2024/03/24 09:15:44;;;;;;;2.25;0.70;;;;;;;7.99;100.00;96120.28;5056719;28;20059;-68
2024/03/24 09:18:10;;;;;;;3.25;1.13;;;;;;;8.49;100.00;96118.38;5037151;28;20124;-69
2024/03/24 09:20:36;;;;;;;2.97;1.17;;;;;;;9.51;94.08;96126.75;5036093;28;20041;-68
2024/03/24 09:23:01;;;;;;;3.60;1.05;;;;;;;10.04;79.89;96133.91;5036885;28;20210;-67
2024/03/24 09:25:27;;;;;;;2.40;0.90;;;;;;;10.25;75.31;96136.06;5035956;28;20076;-69
2024/03/24 09:27:52;;;;;;;1.90;0.90;;;;;;;9.72;75.23;96135.19;5037628;28;20036;-68
2024/03/24 09:30:18;;;;;;;2.38;0.70;;;;;;;9.37;73.82;96125.41;5033119;28;20079;-69
2024/03/24 09:32:46;;;;;;;0.98;0.77;;;;;;;8.49;85.04;96134.75;5038407;28;20040;-68
2024/03/24 09:35:12;;;;;;;4.20;0.80;;;;;;;8.24;85.03;96123.41;5033847;28;20528;-70
2024/03/24 09:37:37;;;;;;;2.53;0.90;;;;;;;7.88;87.28;96132.94;5047998;28;20047;-69
2024/03/24 09:40:04;;;;;;;2.10;0.85;;;;;;;7.90;88.29;96125.97;5037100;28;20060;-69
2024/03/24 09:42:30;;;;;;;2.22;0.70;;;;;;;7.92;91.13;96131.06;5044908;28;20514;-68
2024/03/24 09:44:57;;;;;;;1.98;0.90;;;;;;;7.59;93.80;96121.53;5046950;28;20045;-68
2024/03/24 09:47:24;;;;;;;2.63;0.82;;;;;;;7.19;100.00;96120.75;5033497;28;20515;-68
2024/03/24 09:49:50;;;;;;;2.88;1.00;;;;;;;7.00;100.00;96121.53;5020707;28;20056;-69
2024/03/24 09:52:20;;;;;;;3.22;0.88;;;;;;;7.10;100.00;96130.31;5032890;28;20033;-69
2024/03/24 09:54:47;;;;;;;2.38;0.82;;;;;;;7.15;94.30;96111.75;5038272;28;20044;-69
2024/03/24 09:57:13;;;;;;;2.75;0.90;;;;;;;7.72;89.21;96127.59;5039007;28;20036;-69
2024/03/24 09:59:41;;;;;;;2.28;0.70;;;;;;;8.20;87.41;96112.44;5039893;28;20579;-70
2024/03/24 10:02:09;;;;;;;4.95;1.27;;;;;;;8.97;79.03;96106.97;5033178;28;20037;-68
2024/03/24 10:04:35;;;;;;;3.95;0.80;;;;;;;8.43;74.52;96122.59;5054815;28;20530;-68
2024/03/24 10:07:00;;;;;;;3.53;0.80;;;;;;;9.11;74.10;96123.53;5039299;28;20033;-69
2024/03/24 10:09:26;;;;;;;10.05;4.65;;;;;;;9.52;69.96;96120.88;5034393;28;20045;-68
2024/03/24 10:11:51;;;;;;;2.28;0.70;;;;;;;8.94;68.60;96126.81;5038532;28;20049;-69
2024/03/24 10:14:24;;;;;;;2.03;0.80;;;;;;;9.28;65.09;96124.13;5039310;28;20051;-69
2024/03/24 10:16:50;;;;;;;5.25;1.08;;;;;;;9.23;63.19;96125.22;5041453;28;20043;-69
2024/03/24 10:19:16;;;;;;;3.30;0.80;;;;;;;9.84;65.08;96133.34;5032182;22;20050;-65
2024/03/24 10:21:41;;;;;;;3.47;0.77;;;;;;;9.90;58.57;96132.63;4979714;28;20070;-65
2024/03/24 10:24:07;;;;;;;2.05;0.70;;;;;;;10.20;58.23;96133.66;4974326;28;20054;-65
2024/03/24 10:26:37;;;;;;;4.65;0.70;;;;;;;9.98;59.08;96127.22;4978180;28;20492;-65
2024/03/24 10:29:04;;;;;;;2.05;0.68;;;;;;;8.87;59.80;96126.72;4959345;28;20057;-64
2024/03/24 10:31:32;;;;;;;3.42;0.90;;;;;;;8.64;60.93;96126.78;4982339;28;20117;-64
2024/03/24 10:33:58;;;;;;;3.47;0.85;;;;;;;8.92;62.70;96116.25;4982908;28;20045;-64
2024/03/24 10:36:23;;;;;;;2.97;1.00;;;;;;;9.38;58.40;96131.66;4977457;28;20050;-66
2024/03/24 10:38:49;;;;;;;4.65;1.80;;;;;;;9.57;58.63;96127.97;4995816;28;20129;-65
2024/03/24 10:41:15;;;;;;;2.95;0.88;;;;;;;9.36;60.25;96142.16;4980409;28;20042;-65
2024/03/24 10:43:45;;;;;;;3.97;1.45;;;;;;;8.89;61.37;96122.44;4987660;28;20050;-65
2024/03/24 10:46:11;;;;;;;5.22;1.20;;;;;;;8.97;60.96;96121.41;4975679;28;20046;-65
2024/03/24 10:48:40;;;;;;;4.30;1.25;;;;;;;9.71;58.99;96128.13;4981434;28;20050;-65
2024/03/24 10:51:09;;;;;;;1.45;0.90;;;;;;;9.24;59.00;96129.56;4980441;28;20484;-65
2024/03/24 10:53:35;;;;;;;2.78;1.10;;;;;;;9.52;59.36;96111.91;4984986;28;20452;-65
2024/03/24 10:56:01;;;;;;;5.60;1.27;;;;;;;9.08;59.70;96134.44;4975287;28;20041;-65
2024/03/24 10:58:28;;;;;;;5.05;1.85;;;;;;;8.74;60.13;96134.34;4985214;28;20057;-65
2024/03/24 11:00:54;;;;;;;2.00;1.00;;;;;;;8.60;61.77;96115.81;4981581;28;20094;-65
2024/03/24 11:03:22;;;;;;;3.67;1.17;;;;;;;8.39;63.28;96127.16;4973419;28;20046;-66
2024/03/24 11:05:49;;;;;;;4.45;1.40;;;;;;;8.62;61.05;96132.59;4983405;28;20079;-66
2024/03/24 11:08:16;;;;;;;2.55;1.30;;;;;;;8.92;60.79;96143.56;4980078;28;20057;-65
2024/03/24 11:10:44;;;;;;;3.15;1.30;;;;;;;8.19;63.97;96134.63;4972859;28;20069;-65
2024/03/24 11:13:12;;;;;;;3.80;1.30;;;;;;;7.95;66.02;96125.66;4960869;28;20418;-65
2024/03/24 11:15:41;;;;;;;2.22;1.30;;;;;;;8.10;65.11;96132.16;4983479;28;20106;-65
2024/03/24 11:18:28;;;;;;;4.07;1.33;;;;;;;8.39;64.08;96135.34;4979003;28;20546;-65
2024/03/24 11:20:55;;;;;;;3.25;1.17;;;;;;;8.23;63.30;96128.09;4990292;28;22107;-65
2024/03/24 11:23:25;;;;;;;7.68;1.40;;;;;;;8.42;63.18;96140.09;4977770;28;20070;-65
2024/03/24 11:25:53;;;;;;;3.92;1.50;;;;;;;7.39;66.51;96132.44;4980828;28;20445;-66
2024/03/24 11:28:48;;;;;;;3.03;1.15;;;;;;;7.29;68.54;96138.47;4975531;28;20455;-65